Time;durP1;ratioP1;P1;durP2;ratioP2;P2;SDS_P1;SDS_P2;PMS_P1;PMS_P2;Temp;Humidity;BMP_temperature;BMP_pressure;BME280_temperature;BME280_humidity;BME280_pressure;Samples;Min_cycle;Max_cycle;Signal;HPM_P1;HPM_P2
2022/08/22 00:01:06;;;;;;;1.48;1.20;;;26.40;48.70;;;;;;5063578;28;20025;-62
2022/08/22 00:04:07;;;;;;;1.33;1.20;;;26.40;48.70;;;;;;5083569;28;20484;-62
2022/08/22 00:06:58;;;;;;;2.33;1.20;;;26.40;48.80;;;;;;5070395;28;20037;-63
2022/08/22 00:09:38;;;;;;;1.25;0.98;;;26.30;48.70;;;;;;5084746;28;20451;-62
2022/08/22 00:12:36;;;;;;;1.65;1.10;;;26.30;48.70;;;;;;5085271;28;20149;-62
2022/08/22 00:15:21;;;;;;;2.08;1.33;;;26.30;48.80;;;;;;5084575;28;20028;-62
2022/08/22 00:18:17;;;;;;;1.30;1.00;;;26.30;48.80;;;;;;5084423;28;20047;-62
2022/08/22 00:21:12;;;;;;;1.95;1.10;;;26.30;48.80;;;;;;5081739;28;20041;-62
2022/08/22 00:23:51;;;;;;;1.08;0.90;;;26.30;48.80;;;;;;5082556;28;20555;-63
2022/08/22 00:26:20;;;;;;;1.33;1.02;;;26.30;48.90;;;;;;5083734;28;20085;-62
2022/08/22 00:29:03;;;;;;;1.70;1.30;;;26.30;48.90;;;;;;5083336;28;20377;-62
2022/08/22 00:31:41;;;;;;;1.50;1.00;;;26.20;48.90;;;;;;5083215;28;20043;-62
2022/08/22 00:34:21;;;;;;;1.30;1.00;;;26.20;48.90;;;;;;5082492;28;20627;-62
2022/08/22 00:37:05;;;;;;;1.20;0.95;;;26.20;48.90;;;;;;5083787;28;20473;-62
2022/08/22 00:39:42;;;;;;;1.38;1.05;;;26.20;48.90;;;;;;5083467;28;20454;-62
2022/08/22 00:42:26;;;;;;;1.40;1.10;;;26.20;49.00;;;;;;5083900;28;20372;-63
2022/08/22 00:44:55;;;;;;;1.40;1.05;;;26.20;49.00;;;;;;5084732;28;20074;-61
2022/08/22 00:48:00;;;;;;;2.13;0.93;;;26.20;49.10;;;;;;5084752;28;20020;-62
2022/08/22 00:50:48;;;;;;;1.02;0.93;;;26.20;49.00;;;;;;5084109;28;20391;-61
2022/08/22 00:53:47;;;;;;;1.50;1.10;;;26.20;49.10;;;;;;5082742;28;20052;-62
2022/08/22 00:56:31;;;;;;;1.52;1.10;;;26.20;49.10;;;;;;5083252;28;20495;-62
2022/08/22 00:59:11;;;;;;;1.40;1.10;;;26.20;49.10;;;;;;5083523;28;20025;-63
2022/08/22 01:01:50;;;;;;;1.20;1.08;;;26.20;49.10;;;;;;5080868;28;20028;-62
2022/08/22 01:04:46;;;;;;;1.40;1.10;;;26.20;49.20;;;;;;5082861;28;20081;-61
2022/08/22 01:07:33;;;;;;;1.50;1.10;;;26.10;49.10;;;;;;5082812;28;20086;-61
2022/08/22 01:10:29;;;;;;;1.20;1.02;;;26.10;49.10;;;;;;5065443;28;20656;-62
2022/08/22 01:13:31;;;;;;;1.20;1.00;;;26.10;49.10;;;;;;5081782;28;20471;-61
2022/08/22 01:16:20;;;;;;;1.33;1.00;;;26.10;49.20;;;;;;5082139;28;20028;-62
2022/08/22 01:18:49;;;;;;;1.40;1.13;;;26.10;49.20;;;;;;5082470;28;20468;-62
2022/08/22 01:21:35;;;;;;;1.50;1.25;;;26.10;49.30;;;;;;5082432;28;20103;-62
2022/08/22 01:25:16;;;;;;;1.33;1.00;;;26.10;49.30;;;;;;5081627;28;20130;-62
2022/08/22 01:28:04;;;;;;;1.40;1.02;;;26.10;49.30;;;;;;5060602;28;20033;-62
2022/08/22 01:30:57;;;;;;;1.30;1.02;;;26.10;49.40;;;;;;5082713;28;20151;-62
2022/08/22 01:34:12;;;;;;;1.80;1.10;;;26.00;49.30;;;;;;5081505;28;20115;-62
2022/08/22 01:37:00;;;;;;;2.05;1.13;;;26.00;49.30;;;;;;5059070;28;20513;-62
2022/08/22 01:39:58;;;;;;;1.33;1.00;;;26.00;49.40;;;;;;5082831;28;20060;-62
2022/08/22 01:42:36;;;;;;;1.63;1.10;;;26.00;49.40;;;;;;5081723;28;20111;-63
2022/08/22 01:45:50;;;;;;;1.63;1.10;;;26.00;49.40;;;;;;5082167;28;20402;-62
2022/08/22 01:48:21;;;;;;;1.02;0.93;;;25.90;49.30;;;;;;5057601;28;20467;-62
2022/08/22 01:51:39;;;;;;;1.20;0.98;;;26.00;49.40;;;;;;5081893;28;20024;-61
2022/08/22 01:54:12;;;;;;;1.30;1.00;;;26.00;49.40;;;;;;5062306;28;20419;-62
2022/08/22 01:56:42;;;;;;;1.00;0.90;;;25.90;49.40;;;;;;5080795;28;20472;-62
2022/08/22 01:59:15;;;;;;;1.27;1.02;;;25.90;49.40;;;;;;5081656;28;20016;-62
2022/08/22 02:01:59;;;;;;;1.00;0.90;;;25.90;49.40;;;;;;5082185;28;20032;-62
2022/08/22 02:04:47;;;;;;;1.30;1.10;;;25.90;49.50;;;;;;5082960;28;20032;-63
2022/08/22 02:07:24;;;;;;;1.45;1.10;;;25.90;49.50;;;;;;5080720;28;20019;-63
2022/08/22 02:10:02;;;;;;;1.60;1.17;;;25.90;49.50;;;;;;5081361;28;20040;-62
2022/08/22 02:12:41;;;;;;;1.10;0.90;;;25.90;49.50;;;;;;5082386;28;20475;-63
2022/08/22 02:15:18;;;;;;;1.30;1.00;;;25.90;49.50;;;;;;5082429;28;20375;-62
2022/08/22 02:18:03;;;;;;;1.17;1.00;;;25.90;49.50;;;;;;5080846;28;20047;-62
2022/08/22 02:21:10;;;;;;;1.50;1.00;;;25.90;49.50;;;;;;5081686;28;20494;-62
2022/08/22 02:23:55;;;;;;;1.55;1.02;;;25.80;49.50;;;;;;5073759;28;20043;-62
2022/08/22 02:26:45;;;;;;;1.35;1.00;;;25.90;49.60;;;;;;5082582;28;20039;-62
2022/08/22 02:29:17;;;;;;;1.25;0.98;;;25.80;49.50;;;;;;5080608;28;20035;-62
2022/08/22 02:32:09;;;;;;;1.48;1.00;;;25.80;49.50;;;;;;5082569;28;20081;-62
2022/08/22 02:34:51;;;;;;;1.20;1.02;;;25.80;49.50;;;;;;5082327;28;20073;-62
2022/08/22 02:37:35;;;;;;;1.25;0.98;;;25.80;49.60;;;;;;5080965;28;20024;-62
2022/08/22 02:40:09;;;;;;;1.55;1.05;;;25.80;49.60;;;;;;5082013;28;20387;-62
2022/08/22 02:42:39;;;;;;;1.30;1.00;;;25.80;50.20;;;;;;5080319;28;20032;-63
2022/08/22 02:45:25;;;;;;;1.10;1.00;;;25.80;49.60;;;;;;5081385;28;20043;-62
2022/08/22 02:48:25;;;;;;;1.58;1.02;;;25.80;49.70;;;;;;5070787;28;20448;-61
2022/08/22 02:51:02;;;;;;;1.00;0.90;;;25.80;49.60;;;;;;5081327;28;20046;-62
2022/08/22 02:53:38;;;;;;;1.52;1.10;;;25.80;49.60;;;;;;5078829;28;20027;-62
2022/08/22 02:56:11;;;;;;;1.30;1.05;;;25.70;49.60;;;;;;5081224;28;20494;-62
2022/08/22 02:59:10;;;;;;;1.25;1.00;;;25.80;49.70;;;;;;5080220;28;20031;-62
2022/08/22 03:01:40;;;;;;;1.27;1.08;;;25.70;49.60;;;;;;5080664;28;20033;-62
2022/08/22 03:04:14;;;;;;;;;;;25.70;49.70;;;;;;5080992;28;20062;-62
2022/08/22 03:06:58;;;;;;;1.23;1.00;;;25.70;49.60;;;;;;5081551;28;20389;-63
2022/08/22 03:09:33;;;;;;;1.52;1.08;;;25.70;49.60;;;;;;5080234;28;20032;-62
2022/08/22 03:12:35;;;;;;;1.30;1.02;;;25.70;49.70;;;;;;5079888;28;20021;-62
2022/08/22 03:15:24;;;;;;;1.98;1.00;;;25.70;49.70;;;;;;5071141;28;20042;-63
2022/08/22 03:18:02;;;;;;;1.23;0.95;;;25.70;49.70;;;;;;5082067;28;20391;-63
2022/08/22 03:21:10;;;;;;;1.50;1.13;;;25.70;49.70;;;;;;5080352;28;20074;-62
2022/08/22 03:23:51;;;;;;;1.05;0.90;;;25.70;49.70;;;;;;5079061;28;20036;-62
2022/08/22 03:26:43;;;;;;;1.35;0.90;;;25.70;49.70;;;;;;5080159;28;20395;-61
2022/08/22 03:29:19;;;;;;;1.10;0.90;;;25.70;49.70;;;;;;5077386;28;20460;-62
2022/08/22 03:32:14;;;;;;;0.98;0.80;;;25.70;49.70;;;;;;5079931;28;20093;-62
2022/08/22 03:35:01;;;;;;;1.20;1.00;;;25.70;49.70;;;;;;5080501;28;20055;-62
2022/08/22 03:37:39;;;;;;;1.08;0.90;;;25.70;49.70;;;;;;5086499;28;20075;-63
2022/08/22 03:40:30;;;;;;;1.00;0.90;;;25.70;49.80;;;;;;5086533;28;20499;-62
2022/08/22 03:43:37;;;;;;;1.05;0.90;;;25.70;49.70;;;;;;5087787;28;20024;-63
2022/08/22 03:46:36;;;;;;;1.30;0.90;;;25.70;49.80;;;;;;5086688;28;20036;-62
2022/08/22 03:49:34;;;;;;;1.15;0.98;;;25.60;49.70;;;;;;5087940;28;20023;-63
2022/08/22 03:52:31;;;;;;;1.40;1.05;;;25.60;49.70;;;;;;5084487;28;20024;-63
2022/08/22 03:55:09;;;;;;;1.10;0.90;;;25.70;49.80;;;;;;5056568;28;20063;-63
2022/08/22 03:57:58;;;;;;;1.38;0.93;;;25.70;49.80;;;;;;5088532;28;20034;-62
2022/08/22 04:00:35;;;;;;;1.23;0.98;;;25.60;49.70;;;;;;5084540;28;20471;-63
2022/08/22 04:03:21;;;;;;;1.00;0.90;;;25.60;49.70;;;;;;5086753;28;20487;-62
2022/08/22 04:06:09;;;;;;;1.20;1.00;;;25.60;49.70;;;;;;5087299;28;20028;-63
2022/08/22 04:08:47;;;;;;;1.00;0.90;;;25.60;49.80;;;;;;5087377;28;20119;-63
2022/08/22 04:11:30;;;;;;;1.50;1.00;;;25.60;49.80;;;;;;5086680;28;20040;-62
2022/08/22 04:14:34;;;;;;;0.95;0.80;;;25.60;49.80;;;;;;5086473;28;20048;-62
2022/08/22 04:17:37;;;;;;;1.40;1.00;;;25.60;50.30;;;;;;5036275;28;20477;-63
2022/08/22 04:20:12;;;;;;;1.05;0.82;;;25.60;49.90;;;;;;5085499;28;20543;-62
2022/08/22 04:23:00;;;;;;;1.35;0.93;;;25.60;49.80;;;;;;5085407;28;20031;-63
2022/08/22 04:25:51;;;;;;;1.20;1.00;;;25.50;49.80;;;;;;5085698;28;20028;-62
2022/08/22 04:28:24;;;;;;;1.58;1.08;;;25.60;49.90;;;;;;5087097;28;20052;-62
2022/08/22 04:31:19;;;;;;;1.15;1.00;;;25.50;49.80;;;;;;5086109;28;20040;-63
2022/08/22 04:33:56;;;;;;;0.90;0.90;;;25.60;49.90;;;;;;5083270;28;20051;-63
2022/08/22 04:36:38;;;;;;;1.30;1.10;;;25.60;49.90;;;;;;5087701;28;20032;-63
2022/08/22 04:39:22;;;;;;;1.08;0.98;;;25.60;49.90;;;;;;5088072;28;20507;-62
2022/08/22 04:41:54;;;;;;;1.00;0.90;;;25.50;49.80;;;;;;5088161;28;20170;-62
2022/08/22 04:44:38;;;;;;;1.30;1.00;;;25.50;49.80;;;;;;5086554;28;20444;-62
2022/08/22 04:47:27;;;;;;;0.90;0.82;;;25.50;49.90;;;;;;5071069;28;20040;-62
2022/08/22 04:50:23;;;;;;;1.25;0.90;;;25.50;49.80;;;;;;5082790;28;20553;-61
2022/08/22 04:53:07;;;;;;;0.98;0.80;;;25.50;49.90;;;;;;5082958;28;20050;-61
2022/08/22 04:55:43;;;;;;;2.10;0.82;;;25.50;49.90;;;;;;5082880;28;20499;-62
2022/08/22 04:58:27;;;;;;;1.38;1.08;;;25.50;49.90;;;;;;5084807;28;20017;-62
2022/08/22 05:01:15;;;;;;;1.10;0.80;;;25.50;49.90;;;;;;5082236;28;20028;-62
2022/08/22 05:04:13;;;;;;;1.08;0.82;;;25.50;49.80;;;;;;5082983;28;20029;-62
2022/08/22 05:06:47;;;;;;;1.05;0.90;;;25.50;49.90;;;;;;5048967;28;20048;-62
2022/08/22 05:09:19;;;;;;;1.17;0.88;;;25.50;49.90;;;;;;5082401;28;20032;-62
2022/08/22 05:11:50;;;;;;;0.93;0.85;;;25.50;49.90;;;;;;5082328;28;20074;-62
2022/08/22 05:14:34;;;;;;;1.70;0.90;;;25.50;49.90;;;;;;5083816;28;20124;-63
2022/08/22 05:17:03;;;;;;;1.10;1.00;;;25.50;49.90;;;;;;5084218;28;20521;-62
2022/08/22 05:19:37;;;;;;;1.10;1.00;;;25.50;49.90;;;;;;5080771;28;20032;-62
2022/08/22 05:22:04;;;;;;;1.67;0.95;;;25.50;49.90;;;;;;5084434;28;20266;-62
2022/08/22 05:24:42;;;;;;;1.30;0.90;;;25.50;49.80;;;;;;5081961;28;20073;-62
2022/08/22 05:27:18;;;;;;;1.20;1.00;;;25.50;49.90;;;;;;5081812;28;20028;-62
2022/08/22 05:29:49;;;;;;;0.80;0.80;;;25.40;49.80;;;;;;5081883;28;20390;-62
2022/08/22 05:32:30;;;;;;;0.90;0.80;;;25.50;49.90;;;;;;5082216;28;20407;-62
2022/08/22 05:35:02;;;;;;;0.80;0.80;;;25.50;49.90;;;;;;5082574;28;20021;-62
2022/08/22 05:37:47;;;;;;;1.27;0.95;;;25.50;49.90;;;;;;5081492;28;20039;-63
2022/08/22 05:40:19;;;;;;;1.33;0.90;;;25.50;49.90;;;;;;5083656;28;20527;-63
2022/08/22 05:42:45;;;;;;;1.05;0.90;;;25.50;49.80;;;;;;5081567;28;20077;-63
2022/08/22 05:45:12;;;;;;;0.70;0.70;;;25.50;50.40;;;;;;5083440;28;20052;-63
2022/08/22 05:48:10;;;;;;;1.00;0.82;;;25.40;49.80;;;;;;5081971;28;20021;-63
2022/08/22 05:50:47;;;;;;;1.00;0.90;;;25.40;49.80;;;;;;5081473;28;20056;-63
2022/08/22 05:53:22;;;;;;;1.17;0.90;;;25.40;49.80;;;;;;5086504;28;20031;-61
2022/08/22 05:56:12;;;;;;;1.15;0.80;;;25.50;49.90;;;;;;5091924;28;20029;-62
2022/08/22 05:58:37;;;;;;;;;;;25.50;50.00;;;;;;5092759;28;20019;-61
2022/08/22 06:01:17;;;;;;;0.90;0.80;;;25.50;50.10;;;;;;5084954;28;20768;-60
2022/08/22 06:04:12;;;;;;;0.73;0.73;;;25.50;50.10;;;;;;5086423;28;20058;-62
2022/08/22 06:07:06;;;;;;;1.00;0.80;;;25.60;50.00;;;;;;5075443;28;20547;-62
2022/08/22 06:09:45;;;;;;;1.08;0.90;;;25.60;50.10;;;;;;5078493;28;20036;-63
2022/08/22 06:12:21;;;;;;;1.23;0.90;;;25.60;49.90;;;;;;5080652;28;20472;-62
2022/08/22 06:15:14;;;;;;;1.17;0.98;;;25.60;49.70;;;;;;5064415;28;20047;-62
2022/08/22 06:17:45;;;;;;;1.35;1.00;;;25.70;49.70;;;;;;5080862;28;20028;-62
2022/08/22 06:20:20;;;;;;;1.27;0.90;;;25.70;49.60;;;;;;5082071;28;20502;-62
2022/08/22 06:22:53;;;;;;;1.30;1.00;;;25.70;49.50;;;;;;5081439;28;20095;-63
2022/08/22 06:25:31;;;;;;;1.20;0.90;;;25.70;49.80;;;;;;5080895;28;20047;-63
2022/08/22 06:28:01;;;;;;;1.08;0.90;;;25.80;49.90;;;;;;5081782;28;20033;-63
2022/08/22 06:30:28;;;;;;;1.38;1.00;;;25.80;49.70;;;;;;5080997;28;20139;-63
2022/08/22 06:33:05;;;;;;;1.98;1.00;;;25.80;49.60;;;;;;5081682;28;20028;-62
2022/08/22 06:38:32;;;;;;;2.65;1.45;;;25.90;49.50;;;;;;5081683;28;20396;-62
2022/08/22 06:41:00;;;;;;;5.30;2.55;;;25.90;49.30;;;;;;5081024;28;20710;-62
2022/08/22 06:43:32;;;;;;;3.97;2.70;;;25.90;49.10;;;;;;5082559;28;20030;-62
2022/08/22 06:45:59;;;;;;;4.05;2.90;;;25.90;48.90;;;;;;5081407;28;20551;-62
2022/08/22 06:48:25;;;;;;;4.10;2.80;;;25.80;48.70;;;;;;5080745;28;20069;-61
2022/08/22 06:50:56;;;;;;;3.58;2.90;;;25.80;48.60;;;;;;5082291;28;20031;-62
2022/08/22 06:53:32;;;;;;;3.25;2.70;;;25.80;48.70;;;;;;5079047;28;20028;-62
2022/08/22 06:56:06;;;;;;;3.88;2.90;;;25.70;48.60;;;;;;5080190;28;20024;-61
2022/08/22 06:58:37;;;;;;;3.85;2.95;;;25.70;48.70;;;;;;5082451;28;20032;-61
2022/08/22 07:01:09;;;;;;;4.60;3.00;;;25.70;48.80;;;;;;5080770;28;20047;-62
2022/08/22 07:03:39;;;;;;;3.70;3.10;;;25.70;48.90;;;;;;5080118;28;20428;-61
2022/08/22 07:06:05;;;;;;;3.42;2.72;;;25.70;49.00;;;;;;5081684;28;20035;-61
2022/08/22 07:08:33;;;;;;;3.65;2.95;;;25.60;49.10;;;;;;5081587;28;20821;-62
2022/08/22 07:11:26;;;;;;;3.90;2.78;;;25.60;49.40;;;;;;5080011;28;20024;-63
2022/08/22 07:13:57;;;;;;;3.30;2.67;;;25.60;49.60;;;;;;5078935;28;20048;-61
2022/08/22 07:16:53;;;;;;;4.90;2.90;;;25.60;49.80;;;;;;5079076;28;20070;-62
2022/08/22 07:19:28;;;;;;;3.80;2.75;;;25.60;49.90;;;;;;5079295;28;20054;-61
2022/08/22 07:21:56;;;;;;;3.63;2.80;;;25.60;49.80;;;;;;5080239;28;20035;-62
2022/08/22 07:24:27;;;;;;;3.63;2.72;;;25.70;49.70;;;;;;5078731;28;20050;-60
2022/08/22 07:27:01;;;;;;;3.90;2.47;;;25.60;49.40;;;;;;5079144;28;20032;-62
2022/08/22 07:29:56;;;;;;;4.47;2.92;;;25.70;49.60;;;;;;5079585;28;20032;-61
2022/08/22 07:32:42;;;;;;;3.63;2.63;;;25.70;49.70;;;;;;5078670;28;20039;-61
2022/08/22 07:35:17;;;;;;;3.67;2.80;;;25.70;49.70;;;;;;5078769;28;20021;-61
2022/08/22 07:37:54;;;;;;;3.28;2.40;;;25.60;49.60;;;;;;5079613;28;20029;-62
2022/08/22 07:40:29;;;;;;;2.97;2.60;;;25.60;49.70;;;;;;5079446;28;20028;-62
2022/08/22 07:43:11;;;;;;;3.58;2.70;;;25.70;49.90;;;;;;5079392;28;20351;-62
2022/08/22 07:45:48;;;;;;;3.28;2.58;;;25.70;49.60;;;;;;5079733;28;20024;-62
2022/08/22 07:48:23;;;;;;;2.90;2.30;;;25.70;49.50;;;;;;5079141;28;20571;-62
2022/08/22 07:51:00;;;;;;;3.10;2.15;;;25.70;49.50;;;;;;5080070;28;20036;-62
2022/08/22 07:53:40;;;;;;;2.70;2.10;;;25.70;49.40;;;;;;5080035;28;20021;-62
2022/08/22 07:56:15;;;;;;;3.13;2.10;;;25.80;49.50;;;;;;5079051;28;20029;-62
2022/08/22 07:58:44;;;;;;;2.75;2.10;;;25.80;49.70;;;;;;5079179;28;20085;-63
2022/08/22 08:01:16;;;;;;;2.50;2.00;;;25.80;49.50;;;;;;5079132;28;20033;-62
2022/08/22 08:03:48;;;;;;;2.80;1.90;;;25.80;49.60;;;;;;5080738;28;20464;-62
2022/08/22 08:06:14;;;;;;;2.45;1.70;;;25.90;49.80;;;;;;5080519;28;20028;-62
2022/08/22 08:08:42;;;;;;;2.58;2.10;;;25.90;49.80;;;;;;5080502;28;20047;-62
2022/08/22 08:11:12;;;;;;;3.40;2.13;;;25.90;49.60;;;;;;5079646;28;20617;-61
2022/08/22 08:13:40;;;;;;;;;;;25.90;49.40;;;;;;5080322;28;20505;-62
2022/08/22 08:16:08;;;;;;;2.50;1.80;;;26.00;49.50;;;;;;5079565;28;19908;-62
2022/08/22 08:18:37;;;;;;;4.00;2.08;;;26.00;49.40;;;;;;5079687;28;20035;-62
2022/08/22 08:21:07;;;;;;;3.75;2.30;;;26.00;49.30;;;;;;5081317;28;20036;-62
2022/08/22 08:23:43;;;;;;;3.35;2.40;;;26.00;49.30;;;;;;5082823;28;20052;-62
2022/08/22 08:26:16;;;;;;;2.70;2.20;;;26.10;49.20;;;;;;5082446;28;20387;-62
2022/08/22 08:28:46;;;;;;;3.25;2.10;;;26.10;49.20;;;;;;5081350;28;20565;-62
2022/08/22 08:31:31;;;;;;;2.90;2.00;;;26.10;49.20;;;;;;5082809;28;20485;-60
2022/08/22 08:34:02;;;;;;;3.15;2.20;;;26.10;49.20;;;;;;5083262;28;20040;-61
2022/08/22 08:37:07;;;;;;;2.65;1.88;;;26.10;49.10;;;;;;5082953;28;20029;-60
2022/08/22 08:39:42;;;;;;;2.78;2.17;;;26.10;49.10;;;;;;5084771;28;20036;-60
2022/08/22 08:43:27;;;;;;;3.58;2.03;;;26.20;49.20;;;;;;5083596;28;20071;-60
2022/08/22 08:45:48;;;;;;;3.33;1.92;;;26.10;49.10;;;;;;5081915;28;20489;-60
2022/08/22 08:48:52;;;;;;;2.70;2.03;;;26.20;49.20;;;;;;5083675;28;20055;-61
2022/08/22 08:51:49;;;;;;;2.55;2.00;;;26.20;49.10;;;;;;5085142;28;20772;-59
2022/08/22 08:54:29;;;;;;;2.90;2.08;;;26.20;49.10;;;;;;5079932;28;20112;-60
2022/08/22 08:57:16;;;;;;;2.90;2.30;;;26.20;49.10;;;;;;5083177;28;20031;-61
2022/08/22 09:00:01;;;;;;;2.50;1.80;;;26.20;49.00;;;;;;5083205;28;20029;-61
2022/08/22 09:02:44;;;;;;;2.95;2.00;;;26.30;49.10;;;;;;5083293;28;20029;-60
2022/08/22 09:05:35;;;;;;;3.28;1.92;;;26.30;49.60;;;;;;5083039;28;20029;-61
2022/08/22 09:08:12;;;;;;;2.45;1.83;;;26.30;49.00;;;;;;5083694;28;20115;-61
2022/08/22 09:10:38;;;;;;;2.80;1.80;;;26.30;49.00;;;;;;5082807;28;20028;-61
2022/08/22 09:13:32;;;;;;;2.35;1.70;;;26.30;49.00;;;;;;5082296;28;20047;-61
2022/08/22 09:16:22;;;;;;;2.05;1.80;;;26.30;48.90;;;;;;5070601;28;20139;-61
2022/08/22 09:19:03;;;;;;;2.50;1.70;;;26.40;49.00;;;;;;5082656;28;20058;-61
2022/08/22 09:22:01;;;;;;;2.75;1.92;;;26.30;48.90;;;;;;5081609;28;20479;-61
2022/08/22 09:24:38;;;;;;;3.00;1.90;;;26.40;49.00;;;;;;5084013;28;20106;-61
2022/08/22 09:27:28;;;;;;;2.80;1.92;;;26.40;48.90;;;;;;5083400;28;20036;-61
2022/08/22 09:30:03;;;;;;;2.40;1.90;;;26.40;49.00;;;;;;5082245;28;20391;-61
2022/08/22 09:32:43;;;;;;;2.78;1.73;;;26.40;48.90;;;;;;5082129;28;20072;-61
2022/08/22 09:35:11;;;;;;;2.55;1.92;;;26.50;49.00;;;;;;5080857;28;20521;-60
2022/08/22 09:38:07;;;;;;;2.55;1.95;;;26.40;48.90;;;;;;5083555;28;20472;-60
2022/08/22 09:40:46;;;;;;;2.00;1.67;;;26.50;48.90;;;;;;5080905;28;20119;-61
2022/08/22 09:43:19;;;;;;;2.47;1.75;;;26.50;48.80;;;;;;5083096;28;20490;-61
2022/08/22 09:46:04;;;;;;;2.40;1.70;;;26.50;48.90;;;;;;5083051;28;20178;-61
2022/08/22 09:48:48;;;;;;;2.83;1.80;;;26.50;48.90;;;;;;5082835;28;20059;-61
2022/08/22 09:51:51;;;;;;;3.00;1.83;;;26.50;48.80;;;;;;5083171;28;20498;-60
2022/08/22 09:54:41;;;;;;;3.30;1.85;;;26.50;48.90;;;;;;5082794;28;20310;-61
2022/08/22 09:57:16;;;;;;;3.15;1.70;;;26.50;48.80;;;;;;5082129;28;20070;-61
2022/08/22 10:00:17;;;;;;;2.35;1.58;;;26.60;48.80;;;;;;5081646;28;20035;-61
2022/08/22 10:03:13;;;;;;;3.42;1.90;;;26.60;48.80;;;;;;5081790;28;20452;-61
2022/08/22 10:06:10;;;;;;;3.13;1.90;;;26.60;48.80;;;;;;5081809;28;20166;-62
2022/08/22 10:08:52;;;;;;;2.40;1.80;;;26.60;48.80;;;;;;5081621;28;20036;-61
2022/08/22 10:11:23;;;;;;;3.70;1.90;;;26.60;48.80;;;;;;5081558;28;20036;-61
2022/08/22 10:14:02;;;;;;;3.13;1.83;;;26.60;48.80;;;;;;5097102;28;20045;-61
2022/08/22 10:16:42;;;;;;;4.30;2.13;;;26.60;48.90;;;;;;5081088;28;20021;-62
2022/08/22 10:19:15;;;;;;;4.20;1.75;;;26.60;48.90;;;;;;5080809;28;20027;-61
2022/08/22 10:22:05;;;;;;;4.50;2.38;;;26.60;49.00;;;;;;5080239;28;20488;-61
2022/08/22 10:25:06;;;;;;;4.28;1.90;;;26.60;48.90;;;;;;5081516;28;20032;-61
2022/08/22 10:27:52;;;;;;;3.33;1.90;;;26.70;49.00;;;;;;5080452;28;20450;-61
2022/08/22 10:30:43;;;;;;;3.30;2.05;;;26.70;49.00;;;;;;5080463;28;20110;-61
2022/08/22 10:33:34;;;;;;;3.75;2.15;;;26.70;48.90;;;;;;5081495;28;20029;-61
2022/08/22 10:36:09;;;;;;;3.28;1.90;;;26.70;49.50;;;;;;5081295;28;20388;-60
2022/08/22 10:38:35;;;;;;;4.13;2.20;;;26.70;48.90;;;;;;5081224;28;20024;-61
2022/08/22 10:41:04;;;;;;;4.65;2.05;;;26.70;49.00;;;;;;5081834;28;20036;-61
2022/08/22 10:44:05;;;;;;;3.13;2.00;;;26.70;49.00;;;;;;5081696;28;20337;-61
2022/08/22 10:46:35;;;;;;;4.80;2.35;;;26.70;49.00;;;;;;5070341;28;20024;-61
2022/08/22 10:49:04;;;;;;;4.00;1.88;;;26.70;49.00;;;;;;5080468;28;20642;-61
2022/08/22 10:51:48;;;;;;;3.58;2.10;;;26.70;49.00;;;;;;5081641;28;20015;-61
2022/08/22 10:54:27;;;;;;;3.42;2.15;;;26.70;49.00;;;;;;5072184;28;20112;-60
2022/08/22 10:57:17;;;;;;;2.47;1.75;;;26.70;49.00;;;;;;5082045;28;20020;-61
2022/08/22 11:00:04;;;;;;;3.08;1.90;;;26.70;49.00;;;;;;5080797;28;20110;-61
2022/08/22 11:02:33;;;;;;;2.28;1.45;;;26.60;49.20;;;;;;5080929;28;20492;-62
2022/08/22 11:05:21;;;;;;;2.50;1.58;;;26.60;49.10;;;;;;5081338;28;20066;-62
2022/08/22 11:08:18;;;;;;;3.90;2.00;;;26.60;49.10;;;;;;5071122;28;20115;-62
2022/08/22 11:10:55;;;;;;;3.30;1.80;;;26.70;49.10;;;;;;5079961;28;20098;-61
2022/08/22 11:13:27;;;;;;;2.97;1.80;;;26.70;49.00;;;;;;5079595;28;20053;-62
2022/08/22 11:16:01;;;;;;;3.10;1.90;;;26.70;49.00;;;;;;5079480;28;20032;-62
2022/08/22 11:18:47;;;;;;;3.42;1.90;;;26.70;49.00;;;;;;5079767;28;20074;-61
2022/08/22 11:21:50;;;;;;;3.88;1.88;;;26.80;49.10;;;;;;5079128;28;20554;-62
2022/08/22 11:24:54;;;;;;;3.72;1.83;;;26.80;49.10;;;;;;5078117;28;20112;-59
2022/08/22 11:27:32;;;;;;;3.10;1.85;;;26.80;49.10;;;;;;5078079;28;20117;-62
2022/08/22 11:30:24;;;;;;;3.70;1.77;;;26.80;49.60;;;;;;5079213;28;20051;-61
2022/08/22 11:33:04;;;;;;;3.80;2.30;;;26.90;49.10;;;;;;5076427;28;20454;-62
2022/08/22 11:36:08;;;;;;;3.10;1.70;;;26.80;49.00;;;;;;5078557;28;20447;-62
2022/08/22 11:38:51;;;;;;;4.88;1.98;;;26.90;49.00;;;;;;5069972;28;20045;-63
2022/08/22 11:41:28;;;;;;;2.40;1.50;;;26.90;49.00;;;;;;5079371;28;20024;-62
2022/08/22 11:44:05;;;;;;;2.85;1.80;;;26.90;49.10;;;;;;5080124;28;20036;-62
2022/08/22 11:46:35;;;;;;;3.08;1.75;;;26.90;49.10;;;;;;5081213;28;20031;-62
2022/08/22 11:49:25;;;;;;;3.78;2.05;;;26.90;49.00;;;;;;5079412;28;20060;-62
2022/08/22 11:52:04;;;;;;;3.10;1.73;;;26.90;49.00;;;;;;5080394;28;20099;-62
2022/08/22 11:54:39;;;;;;;3.60;1.50;;;26.90;49.00;;;;;;5078766;28;20484;-62
2022/08/22 11:57:10;;;;;;;3.00;1.70;;;27.00;49.10;;;;;;5079929;28;20028;-62
2022/08/22 11:59:42;;;;;;;3.40;1.85;;;27.00;49.10;;;;;;5084235;28;20032;-62
2022/08/22 12:02:38;;;;;;;4.60;2.20;;;27.00;49.40;;;;;;5084986;28;20039;-62
2022/08/22 12:05:23;;;;;;;4.05;1.80;;;27.00;49.10;;;;;;5083142;28;20239;-62
2022/08/22 12:08:02;;;;;;;3.10;1.83;;;27.00;49.10;;;;;;5084164;28;20515;-61
2022/08/22 12:10:34;;;;;;;3.63;1.70;;;27.00;49.00;;;;;;5084141;28;20103;-63
2022/08/22 12:13:15;;;;;;;3.20;1.85;;;27.10;49.10;;;;;;5083143;28;20520;-62
2022/08/22 12:16:02;;;;;;;2.67;1.50;;;27.10;49.10;;;;;;5082113;28;20087;-63
2022/08/22 12:18:31;;;;;;;4.28;1.90;;;27.10;49.10;;;;;;5081302;28;20035;-63
2022/08/22 12:21:02;;;;;;;2.47;1.60;;;27.10;49.00;;;;;;5084399;28;20632;-63
2022/08/22 12:23:39;;;;;;;3.10;1.67;;;27.10;49.00;;;;;;5083856;28;20475;-62
2022/08/22 12:26:20;;;;;;;2.70;1.60;;;27.10;49.00;;;;;;5086036;28;20395;-62
2022/08/22 12:28:54;;;;;;;2.58;1.50;;;27.10;49.00;;;;;;5081693;28;20032;-62
2022/08/22 12:31:55;;;;;;;3.38;1.70;;;27.20;49.40;;;;;;5082818;28;20064;-62
2022/08/22 12:34:32;;;;;;;3.05;1.80;;;27.20;49.00;;;;;;5083908;28;20484;-62
2022/08/22 12:37:02;;;;;;;3.00;1.65;;;27.20;49.00;;;;;;5085302;28;20479;-62
2022/08/22 12:39:46;;;;;;;3.13;1.80;;;27.20;49.00;;;;;;5083703;28;20027;-63
2022/08/22 12:42:28;;;;;;;4.43;1.65;;;27.20;49.00;;;;;;5082314;28;20118;-63
2022/08/22 12:45:15;;;;;;;3.47;1.73;;;27.20;49.00;;;;;;5083159;28;20025;-64
2022/08/22 12:47:55;;;;;;;2.25;1.45;;;27.20;48.90;;;;;;5082725;28;20032;-64
2022/08/22 12:50:30;;;;;;;2.88;1.70;;;27.20;49.00;;;;;;5084286;28;20023;-63
2022/08/22 12:53:09;;;;;;;3.10;1.63;;;27.20;49.00;;;;;;5084898;28;20020;-64
2022/08/22 12:56:00;;;;;;;2.05;1.48;;;27.30;49.00;;;;;;5084937;28;20025;-64
2022/08/22 12:58:47;;;;;;;3.67;1.63;;;27.30;49.00;;;;;;5083762;28;20020;-65
2022/08/22 13:01:14;;;;;;;3.00;1.73;;;27.30;49.00;;;;;;5082168;28;20040;-64
2022/08/22 13:03:47;;;;;;;3.13;1.77;;;27.30;49.00;;;;;;5084454;28;20020;-64
2022/08/22 13:06:34;;;;;;;2.25;1.30;;;27.30;48.90;;;;;;5083835;28;20028;-64
2022/08/22 13:09:10;;;;;;;3.00;1.63;;;27.30;49.00;;;;;;5080812;28;20111;-64
2022/08/22 13:11:39;;;;;;;2.95;1.50;;;27.30;48.90;;;;;;5083851;28;20040;-64
2022/08/22 13:14:07;;;;;;;;;;;27.30;49.10;;;;;;5082585;28;20044;-64
2022/08/22 13:16:44;;;;;;;3.20;1.50;;;27.30;49.20;;;;;;5083118;28;20381;-63
2022/08/22 13:19:21;;;;;;;1.80;1.30;;;27.30;49.60;;;;;;5083454;28;20016;-64
2022/08/22 13:22:08;;;;;;;2.70;1.50;;;27.30;49.30;;;;;;5082423;28;20024;-64
2022/08/22 13:24:47;;;;;;;2.40;1.30;;;27.30;49.10;;;;;;5083141;28;20502;-63
2022/08/22 13:27:22;;;;;;;2.80;1.33;;;27.30;49.10;;;;;;5082938;28;20033;-64
2022/08/22 13:30:02;;;;;;;3.95;1.60;;;27.40;49.20;;;;;;5082983;28;20031;-63
2022/08/22 13:32:50;;;;;;;2.75;1.88;;;27.40;49.00;;;;;;5080732;28;20123;-63
2022/08/22 13:35:23;;;;;;;2.83;1.60;;;27.40;48.90;;;;;;5082904;28;20157;-63
2022/08/22 13:37:54;;;;;;;3.20;1.60;;;27.40;48.80;;;;;;5082821;28;20040;-63
2022/08/22 13:40:25;;;;;;;2.55;1.40;;;27.40;48.80;;;;;;5082546;28;20455;-63
2022/08/22 13:43:02;;;;;;;2.67;1.50;;;27.40;48.80;;;;;;5083303;28;20039;-63
2022/08/22 13:45:29;;;;;;;2.45;1.40;;;27.40;48.70;;;;;;5083551;28;20100;-64
2022/08/22 13:48:06;;;;;;;3.95;1.52;;;27.50;48.80;;;;;;5082300;28;20476;-63
2022/08/22 13:50:35;;;;;;;2.63;1.40;;;27.50;48.70;;;;;;5080227;28;20028;-63
2022/08/22 13:53:09;;;;;;;2.80;1.27;;;27.50;48.70;;;;;;5080944;28;20482;-63
2022/08/22 13:55:48;;;;;;;2.05;1.48;;;27.50;48.60;;;;;;5082951;28;20028;-63
2022/08/22 13:58:55;;;;;;;2.40;1.60;;;27.50;48.60;;;;;;5082176;28;20242;-63
2022/08/22 14:01:55;;;;;;;1.92;1.27;;;27.50;48.60;;;;;;5072550;28;20032;-65
2022/08/22 14:04:26;;;;;;;2.53;1.48;;;27.50;48.60;;;;;;5053813;28;20056;-64
2022/08/22 14:07:02;;;;;;;2.35;1.40;;;27.50;48.70;;;;;;5060417;28;20031;-64